createdAt,value
2023-05-09T00:00:56.816Z,2.30
2023-05-09T00:03:23.581Z,2.20
2023-05-09T00:05:51.045Z,2.40
2023-05-09T00:08:17.789Z,2.10
2023-05-09T00:10:44.599Z,2.40
2023-05-09T00:13:12.247Z,2.10
2023-05-09T00:15:39.136Z,2.10
2023-05-09T00:18:06.057Z,2.03
2023-05-09T00:20:34.162Z,2.58
2023-05-09T00:23:00.981Z,2.50
2023-05-09T00:25:27.807Z,2.75
2023-05-09T00:27:54.581Z,2.10
2023-05-09T00:30:21.467Z,2.22
2023-05-09T00:32:48.323Z,2.28
2023-05-09T00:35:15.501Z,2.03
2023-05-09T00:37:42.439Z,2.30
2023-05-09T00:40:09.630Z,2.50
2023-05-09T00:42:36.757Z,2.47
2023-05-09T00:45:03.962Z,2.40
2023-05-09T00:47:31.072Z,2.60
2023-05-09T00:49:58.417Z,2.60
2023-05-09T00:52:26.216Z,3.00
2023-05-09T00:54:53.864Z,2.85
2023-05-09T00:57:21.097Z,2.65
2023-05-09T00:59:48.727Z,2.78
2023-05-09T01:02:18.863Z,2.90
2023-05-09T01:04:46.553Z,2.83
2023-05-09T01:07:39.283Z,2.70
2023-05-09T01:10:35.131Z,2.72
2023-05-09T01:13:05.185Z,2.65
2023-05-09T01:15:39.447Z,2.50
2023-05-09T01:18:16.875Z,2.55
2023-05-09T01:20:47.331Z,2.53
2023-05-09T01:23:52.518Z,2.88
2023-05-09T01:26:32.310Z,2.92
2023-05-09T01:29:23.680Z,2.70
2023-05-09T01:31:52.022Z,2.80
2023-05-09T01:34:21.197Z,2.70
2023-05-09T01:36:51.804Z,2.60
2023-05-09T01:39:19.952Z,2.78
2023-05-09T01:41:46.887Z,2.47
2023-05-09T01:44:16.098Z,2.60
2023-05-09T01:46:44.426Z,2.65
2023-05-09T01:49:12.090Z,2.80
2023-05-09T01:51:40.796Z,2.38
2023-05-09T01:54:11.131Z,2.08
2023-05-09T01:56:39.811Z,2.67
2023-05-09T01:59:07.884Z,2.40
2023-05-09T02:01:36.074Z,2.65
2023-05-09T02:04:05.208Z,2.45
2023-05-09T02:06:32.646Z,2.67
2023-05-09T02:08:59.698Z,2.65
2023-05-09T02:11:26.563Z,2.30
2023-05-09T02:13:53.497Z,2.30
2023-05-09T02:16:21.221Z,2.72
2023-05-09T02:18:48.758Z,2.67
2023-05-09T02:21:15.663Z,2.72
2023-05-09T02:23:42.569Z,2.30
2023-05-09T02:26:09.475Z,3.00
2023-05-09T02:28:38.259Z,2.75
2023-05-09T02:31:09.230Z,2.63
2023-05-09T02:33:38.278Z,3.03
2023-05-09T02:36:06.064Z,2.53
2023-05-09T02:38:33.960Z,3.10
2023-05-09T02:41:02.175Z,2.95
2023-05-09T02:43:28.980Z,3.03
2023-05-09T02:45:55.978Z,2.55
2023-05-09T02:48:22.756Z,2.85
2023-05-09T02:50:49.469Z,3.17
2023-05-09T02:53:16.419Z,3.00
2023-05-09T02:55:43.147Z,3.63
2023-05-09T02:58:13.959Z,3.03
2023-05-09T03:00:43.307Z,3.47
2023-05-09T03:03:11.831Z,3.03
2023-05-09T03:05:38.789Z,3.28
2023-05-09T03:08:05.676Z,3.60
2023-05-09T03:10:34.081Z,3.30
2023-05-09T03:13:01.138Z,3.33
2023-05-09T03:15:27.998Z,3.40
2023-05-09T03:17:54.850Z,3.40
2023-05-09T03:20:22.376Z,3.38
2023-05-09T03:22:49.655Z,3.80
2023-05-09T03:25:17.117Z,3.42
2023-05-09T03:27:44.596Z,3.75
2023-05-09T03:30:14.745Z,3.78
2023-05-09T03:32:43.393Z,3.50
2023-05-09T03:35:10.282Z,3.58
2023-05-09T03:37:37.526Z,3.50
2023-05-09T03:40:07.555Z,3.00
2023-05-09T03:42:40.312Z,4.05
2023-05-09T03:45:07.674Z,3.47
2023-05-09T03:47:34.729Z,3.80
2023-05-09T03:50:01.869Z,3.33
2023-05-09T03:52:28.990Z,4.03
2023-05-09T03:54:55.823Z,3.60
2023-05-09T03:57:22.761Z,3.17
2023-05-09T03:59:51.454Z,3.13
2023-05-09T04:02:18.684Z,3.13
2023-05-09T04:04:47.431Z,3.22
2023-05-09T04:07:16.658Z,3.22
2023-05-09T04:09:44.003Z,3.20
2023-05-09T04:12:10.916Z,2.92
2023-05-09T04:14:39.592Z,3.25
2023-05-09T04:17:06.840Z,2.80
2023-05-09T04:19:33.627Z,2.95
2023-05-09T04:22:00.305Z,2.92
2023-05-09T04:24:27.008Z,3.47
2023-05-09T04:26:53.722Z,3.03
2023-05-09T04:29:23.760Z,3.35
2023-05-09T04:31:54.103Z,3.00
2023-05-09T04:34:24.854Z,3.10
2023-05-09T04:36:52.168Z,3.10
2023-05-09T04:39:19.724Z,3.38
2023-05-09T04:41:55.632Z,2.90
2023-05-09T04:44:23.534Z,3.00
2023-05-09T04:46:51.202Z,3.15
2023-05-09T04:49:18.035Z,2.97
2023-05-09T04:51:44.807Z,2.85
2023-05-09T04:54:11.745Z,2.90
2023-05-09T04:56:41.050Z,2.80
2023-05-09T04:59:07.822Z,3.00
2023-05-09T05:01:34.660Z,2.75
2023-05-09T05:04:01.670Z,3.20
2023-05-09T05:06:31.981Z,3.10
2023-05-09T05:08:59.509Z,2.72
2023-05-09T05:11:26.539Z,2.80
2023-05-09T05:13:53.637Z,2.90
2023-05-09T05:16:20.642Z,2.47
2023-05-09T05:18:47.598Z,2.80
2023-05-09T05:21:16.347Z,2.72
2023-05-09T05:23:44.061Z,2.85
2023-05-09T05:26:10.973Z,2.78
2023-05-09T05:28:38.146Z,2.70
2023-05-09T05:31:05.872Z,3.28
2023-05-09T05:33:32.866Z,2.47
2023-05-09T05:36:00.374Z,2.78
2023-05-09T05:38:27.237Z,2.80
2023-05-09T05:40:56.449Z,3.00
2023-05-09T05:43:24.748Z,2.83
2023-05-09T05:45:51.673Z,2.70
2023-05-09T05:48:22.925Z,2.88
2023-05-09T05:50:49.854Z,2.80
2023-05-09T05:53:19.739Z,2.78
2023-05-09T05:55:47.314Z,2.80
2023-05-09T05:58:14.155Z,3.22
2023-05-09T06:00:41.315Z,3.08
2023-05-09T06:03:08.847Z,3.03
2023-05-09T06:05:44.338Z,2.80
2023-05-09T06:08:12.350Z,2.53
2023-05-09T06:10:39.086Z,2.80
2023-05-09T06:13:05.905Z,2.45
2023-05-09T06:15:36.834Z,3.03
2023-05-09T06:18:06.250Z,3.13
2023-05-09T06:20:33.071Z,2.58
2023-05-09T06:23:03.531Z,2.90
2023-05-09T06:25:30.587Z,2.60
2023-05-09T06:27:57.283Z,2.97
2023-05-09T06:30:26.993Z,2.63
2023-05-09T06:35:21.469Z,2.47
2023-05-09T06:37:49.025Z,2.42
2023-05-09T06:40:16.788Z,2.95
2023-05-09T06:42:43.807Z,2.45
2023-05-09T06:45:11.203Z,2.58
2023-05-09T06:47:37.998Z,2.92
2023-05-09T06:50:05.421Z,2.78
2023-05-09T06:52:32.225Z,2.70
2023-05-09T06:54:59.179Z,2.75
2023-05-09T06:57:26.131Z,2.67
2023-05-09T06:59:52.872Z,2.75
2023-05-09T07:02:19.709Z,2.50
2023-05-09T07:04:46.578Z,2.70
2023-05-09T07:07:13.392Z,3.30
2023-05-09T07:09:40.065Z,2.38
2023-05-09T07:12:06.938Z,2.70
2023-05-09T07:14:33.742Z,2.58
2023-05-09T07:17:18.251Z,2.22
2023-05-09T07:19:47.498Z,2.78
2023-05-09T07:22:14.184Z,2.70
2023-05-09T07:24:41.105Z,2.60
2023-05-09T07:27:07.871Z,2.70
2023-05-09T07:29:34.633Z,3.00
2023-05-09T07:32:01.658Z,2.63
2023-05-09T07:34:28.591Z,2.97
2023-05-09T07:36:55.413Z,2.80
2023-05-09T07:39:22.184Z,2.40
2023-05-09T07:41:48.951Z,2.65
2023-05-09T07:44:16.351Z,2.70
2023-05-09T07:46:43.135Z,2.47
2023-05-09T07:49:09.950Z,2.92
2023-05-09T07:51:36.717Z,2.50
2023-05-09T07:54:03.557Z,2.50
2023-05-09T07:56:30.479Z,2.70
2023-05-09T07:58:57.246Z,2.60
2023-05-09T08:01:23.979Z,2.50
2023-05-09T08:03:50.878Z,2.90
2023-05-09T08:06:17.836Z,2.40
2023-05-09T08:08:44.721Z,2.63
2023-05-09T08:11:11.451Z,2.75
2023-05-09T08:13:38.182Z,2.25
2023-05-09T08:16:05.861Z,2.53
2023-05-09T08:18:32.726Z,2.42
2023-05-09T08:20:59.862Z,2.22
2023-05-09T08:23:27.143Z,2.55
2023-05-09T08:25:54.759Z,2.15
2023-05-09T08:28:24.745Z,2.40
2023-05-09T08:30:51.973Z,2.45
2023-05-09T08:33:19.045Z,2.35
2023-05-09T08:35:46.306Z,2.47
2023-05-09T08:38:13.220Z,2.30
2023-05-09T08:40:41.478Z,2.28
2023-05-09T08:43:11.636Z,2.80
2023-05-09T08:45:49.729Z,2.90
2023-05-09T08:48:17.068Z,2.90
2023-05-09T08:50:44.898Z,2.95
2023-05-09T08:53:12.413Z,2.70
2023-05-09T08:55:39.657Z,2.70
2023-05-09T08:58:07.216Z,2.67
2023-05-09T09:00:34.008Z,2.50
2023-05-09T09:03:04.079Z,2.30
2023-05-09T09:05:41.295Z,2.58
2023-05-09T09:08:10.218Z,2.53
2023-05-09T09:10:42.742Z,2.60
2023-05-09T09:13:11.426Z,2.53
2023-05-09T09:15:40.585Z,2.88
2023-05-09T09:18:10.260Z,2.30
2023-05-09T09:20:44.955Z,2.70
2023-05-09T09:23:16.621Z,2.30
2023-05-09T09:25:46.270Z,2.30
2023-05-09T09:28:13.251Z,2.08
2023-05-09T09:30:48.477Z,1.92
2023-05-09T09:33:22.552Z,1.50
2023-05-09T09:35:51.043Z,1.30
2023-05-09T09:38:22.200Z,0.98
2023-05-09T09:40:53.736Z,1.17
2023-05-09T09:43:20.860Z,1.30
2023-05-09T09:45:51.426Z,1.70
2023-05-09T09:48:18.425Z,2.00
2023-05-09T09:50:47.894Z,2.35
2023-05-09T09:53:14.695Z,2.35
2023-05-09T09:55:50.405Z,2.65
2023-05-09T09:58:18.310Z,2.33
2023-05-09T10:00:46.307Z,2.53
2023-05-09T10:03:17.530Z,2.20
2023-05-09T10:05:45.591Z,2.42
2023-05-09T10:08:12.754Z,1.90
2023-05-09T10:10:39.734Z,1.80
2023-05-09T10:13:10.419Z,1.80
2023-05-09T10:15:49.328Z,2.35
2023-05-09T10:18:26.620Z,2.50
2023-05-09T10:23:52.845Z,2.90
2023-05-09T10:26:28.977Z,2.03
2023-05-09T10:28:58.132Z,1.70
2023-05-09T10:31:29.587Z,2.10
2023-05-09T10:33:57.169Z,1.80
2023-05-09T10:36:24.939Z,1.77
2023-05-09T10:38:54.960Z,2.10
2023-05-09T10:41:22.597Z,2.03
2023-05-09T10:43:49.642Z,1.80
2023-05-09T10:46:17.666Z,1.73
2023-05-09T10:48:45.610Z,1.80
2023-05-09T10:51:13.257Z,1.67
2023-05-09T10:53:50.949Z,1.50
2023-05-09T10:56:26.462Z,1.50
2023-05-09T10:58:54.765Z,1.55
2023-05-09T11:01:39.759Z,1.50
2023-05-09T11:04:11.678Z,1.52
2023-05-09T11:06:45.297Z,1.50
2023-05-09T11:09:41.647Z,1.50
2023-05-09T11:12:13.153Z,1.85
2023-05-09T11:14:48.882Z,1.92
2023-05-09T11:17:22.025Z,1.80
2023-05-09T11:19:51.847Z,1.80
2023-05-09T11:22:27.924Z,2.08
2023-05-09T11:25:07.915Z,1.98
2023-05-09T11:27:45.951Z,1.65
2023-05-09T11:30:15.586Z,2.10
2023-05-09T11:32:45.542Z,1.90
2023-05-09T11:35:20.913Z,1.95
2023-05-09T11:37:55.196Z,1.95
2023-05-09T11:40:22.894Z,1.90
2023-05-09T11:42:54.701Z,2.20
2023-05-09T11:45:25.271Z,2.10
2023-05-09T11:47:52.898Z,2.20
2023-05-09T11:50:20.603Z,2.28
2023-05-09T11:52:48.512Z,2.30
2023-05-09T11:55:18.604Z,2.13
2023-05-09T11:57:51.197Z,1.98
2023-05-09T12:00:22.961Z,2.22
2023-05-09T12:02:51.368Z,2.50
2023-05-09T12:05:20.078Z,2.17
2023-05-09T12:07:47.567Z,2.45
2023-05-09T12:10:19.241Z,2.22
2023-05-09T12:12:51.025Z,1.90
2023-05-09T12:15:19.247Z,2.10
2023-05-09T12:17:49.606Z,2.25
2023-05-09T12:20:18.062Z,1.90
2023-05-09T12:22:45.210Z,2.30
2023-05-09T12:25:12.542Z,2.40
2023-05-09T12:27:41.288Z,2.17
2023-05-09T12:30:10.523Z,2.05
2023-05-09T12:32:40.367Z,2.20
2023-05-09T12:35:09.582Z,2.30
2023-05-09T12:37:36.589Z,2.35
2023-05-09T12:40:06.170Z,1.98
2023-05-09T12:42:34.420Z,2.10
2023-05-09T12:45:07.752Z,2.10
2023-05-09T12:47:34.718Z,2.10
2023-05-09T12:50:03.528Z,2.10
2023-05-09T12:52:46.982Z,2.03
2023-05-09T12:55:21.253Z,1.95
2023-05-09T12:58:03.360Z,2.20
2023-05-09T13:00:44.756Z,1.95
2023-05-09T13:03:42.469Z,1.85
2023-05-09T13:06:14.016Z,1.80
2023-05-09T13:08:41.542Z,2.10
2023-05-09T13:11:16.676Z,2.35
2023-05-09T13:13:44.283Z,1.92
2023-05-09T13:16:12.187Z,2.15
2023-05-09T13:18:41.068Z,1.95
2023-05-09T13:21:07.733Z,1.67
2023-05-09T13:23:34.572Z,1.80
2023-05-09T13:26:01.305Z,1.80
2023-05-09T13:28:28.281Z,1.65
2023-05-09T13:30:55.126Z,1.50
2023-05-09T13:33:25.970Z,1.48
2023-05-09T13:35:53.920Z,1.40
2023-05-09T13:38:20.948Z,1.45
2023-05-09T13:40:47.754Z,1.30
2023-05-09T13:43:14.454Z,1.60
2023-05-09T13:45:41.329Z,1.30
2023-05-09T13:48:08.328Z,1.60
2023-05-09T13:50:35.068Z,1.50
2023-05-09T13:53:02.004Z,1.80
2023-05-09T13:55:29.747Z,1.70
2023-05-09T13:57:56.702Z,1.52
2023-05-09T14:00:25.584Z,1.42
2023-05-09T14:02:52.893Z,1.23
2023-05-09T14:05:19.873Z,1.30
2023-05-09T14:07:46.802Z,1.10
2023-05-09T14:10:13.773Z,1.23
2023-05-09T14:12:40.916Z,1.20
2023-05-09T14:15:08.618Z,1.60
2023-05-09T14:17:35.553Z,1.13
2023-05-09T14:20:02.516Z,1.45
2023-05-09T14:22:29.271Z,1.08
2023-05-09T14:24:57.369Z,1.00
2023-05-09T14:27:25.220Z,1.10
2023-05-09T14:29:52.023Z,1.00
2023-05-09T14:32:18.881Z,1.10
2023-05-09T14:34:45.951Z,0.90
2023-05-09T14:37:15.626Z,0.90
2023-05-09T14:39:45.323Z,1.05
2023-05-09T14:44:42.105Z,1.00
2023-05-09T14:47:09.943Z,1.30
2023-05-09T14:49:38.720Z,1.17
2023-05-09T14:52:06.100Z,1.10
2023-05-09T14:54:32.850Z,0.90
2023-05-09T14:57:01.890Z,1.10
2023-05-09T14:59:28.768Z,1.00
2023-05-09T15:01:55.576Z,0.90
2023-05-09T15:04:23.147Z,1.10
2023-05-09T15:06:50.046Z,1.02
2023-05-09T15:09:16.780Z,1.20
2023-05-09T15:11:48.404Z,1.00
2023-05-09T15:14:16.804Z,1.00
2023-05-09T15:16:44.030Z,0.70
2023-05-09T15:19:11.092Z,1.00
2023-05-09T15:21:37.853Z,0.90
2023-05-09T15:24:04.975Z,1.00
2023-05-09T15:26:32.326Z,1.30
2023-05-09T15:28:59.309Z,1.20
2023-05-09T15:31:26.395Z,1.02
2023-05-09T15:33:53.378Z,1.08
2023-05-09T15:36:20.137Z,1.25
2023-05-09T15:38:49.546Z,1.10
2023-05-09T15:41:17.089Z,1.02
2023-05-09T15:43:43.977Z,1.02
2023-05-09T15:46:10.975Z,1.10
2023-05-09T15:48:37.846Z,1.10
2023-05-09T15:51:04.801Z,1.05
2023-05-09T15:53:31.921Z,1.10
2023-05-09T15:55:58.925Z,1.10
2023-05-09T15:58:25.766Z,0.85
2023-05-09T16:00:52.691Z,1.00
2023-05-09T16:03:19.707Z,1.02
2023-05-09T16:05:46.686Z,1.25
2023-05-09T16:08:13.518Z,1.00
2023-05-09T16:10:40.908Z,1.70
2023-05-09T16:13:07.915Z,1.13
2023-05-09T16:15:35.276Z,1.00
2023-05-09T16:18:02.185Z,1.38
2023-05-09T16:20:28.984Z,1.45
2023-05-09T16:22:55.703Z,1.50
2023-05-09T16:25:22.781Z,1.58
2023-05-09T16:27:49.638Z,1.73
2023-05-09T16:30:16.895Z,1.10
2023-05-09T16:32:43.872Z,0.90
2023-05-09T16:35:10.826Z,1.00
2023-05-09T16:37:37.778Z,0.93
2023-05-09T16:40:05.122Z,1.10
2023-05-09T16:42:31.977Z,1.17
2023-05-09T16:44:58.693Z,1.10
2023-05-09T16:47:25.599Z,0.98
2023-05-09T16:49:52.356Z,0.77
2023-05-09T16:52:19.140Z,0.98
2023-05-09T16:54:46.042Z,1.10
2023-05-09T16:57:13.538Z,0.70
2023-05-09T16:59:41.443Z,1.30
2023-05-09T17:02:08.445Z,0.85
2023-05-09T17:04:37.499Z,0.90
2023-05-09T17:07:04.878Z,1.00
2023-05-09T17:09:32.230Z,0.90
2023-05-09T17:11:59.192Z,0.95
2023-05-09T17:14:26.941Z,0.90
2023-05-09T17:16:54.119Z,0.85
2023-05-09T17:19:23.440Z,0.90
2023-05-09T17:21:50.358Z,1.10
2023-05-09T17:24:17.387Z,0.77
2023-05-09T17:26:44.342Z,0.80
2023-05-09T17:29:11.060Z,0.80
2023-05-09T17:31:37.815Z,0.70
2023-05-09T17:34:05.688Z,0.80
2023-05-09T17:36:33.725Z,0.93
2023-05-09T17:39:00.859Z,0.68
2023-05-09T17:41:27.887Z,0.70
2023-05-09T17:43:57.342Z,0.60
2023-05-09T17:46:24.653Z,0.70
2023-05-09T17:48:51.741Z,0.90
2023-05-09T17:51:18.655Z,0.80
2023-05-09T17:53:45.517Z,0.70
2023-05-09T17:56:12.259Z,0.80
2023-05-09T17:58:38.911Z,0.80
2023-05-09T18:01:05.733Z,1.13
2023-05-09T18:03:32.882Z,0.90
2023-05-09T18:06:02.834Z,0.60
2023-05-09T18:10:57.826Z,0.70
2023-05-09T18:13:24.747Z,0.85
2023-05-09T18:15:51.671Z,1.10
2023-05-09T18:18:18.511Z,0.88
2023-05-09T18:20:47.124Z,0.90
2023-05-09T18:23:15.149Z,1.13
2023-05-09T18:25:42.001Z,1.30
2023-05-09T18:28:09.369Z,1.33
2023-05-09T18:30:36.272Z,1.38
2023-05-09T18:33:03.719Z,1.98
2023-05-09T18:35:31.618Z,1.45
2023-05-09T18:37:58.312Z,1.50
2023-05-09T18:40:24.960Z,1.50
2023-05-09T18:42:51.677Z,1.40
2023-05-09T18:45:18.781Z,1.40
2023-05-09T18:47:45.587Z,1.27
2023-05-09T18:50:13.606Z,1.25
2023-05-09T18:52:40.624Z,1.63
2023-05-09T18:55:07.886Z,1.40
2023-05-09T18:57:34.845Z,1.30
2023-05-09T19:00:02.176Z,1.30
2023-05-09T19:02:30.219Z,1.33
2023-05-09T19:04:57.114Z,1.45
2023-05-09T19:07:24.212Z,1.52
2023-05-09T19:09:51.359Z,1.30
2023-05-09T19:12:18.106Z,1.17
2023-05-09T19:14:44.794Z,1.60
2023-05-09T19:17:11.509Z,1.40
2023-05-09T19:19:38.409Z,1.35
2023-05-09T19:22:05.445Z,1.60
2023-05-09T19:24:32.995Z,1.50
2023-05-09T19:26:59.802Z,1.52
2023-05-09T19:29:26.624Z,1.38
2023-05-09T19:31:53.318Z,1.40
2023-05-09T19:34:20.180Z,1.25
2023-05-09T19:36:47.007Z,1.60
2023-05-09T19:39:13.733Z,1.90
2023-05-09T19:41:41.124Z,1.75
2023-05-09T19:44:07.917Z,1.48
2023-05-09T19:46:35.385Z,1.70
2023-05-09T19:49:02.354Z,1.50
2023-05-09T19:51:29.601Z,1.55
2023-05-09T19:53:56.363Z,1.65
2023-05-09T19:56:24.022Z,2.25
2023-05-09T19:58:50.762Z,1.80
2023-05-09T20:01:19.086Z,1.42
2023-05-09T20:03:47.120Z,1.52
2023-05-09T20:06:14.007Z,1.58
2023-05-09T20:08:40.783Z,1.27
2023-05-09T20:11:07.940Z,1.30
2023-05-09T20:13:34.677Z,1.42
2023-05-09T20:16:03.200Z,1.33
2023-05-09T20:18:33.343Z,1.38
2023-05-09T20:21:01.286Z,1.30
2023-05-09T20:23:28.710Z,1.33
2023-05-09T20:25:56.302Z,1.20
2023-05-09T20:28:23.072Z,1.35
2023-05-09T20:30:50.217Z,1.10
2023-05-09T20:33:16.974Z,1.10
2023-05-09T20:35:43.943Z,1.70
2023-05-09T20:38:12.053Z,1.25
2023-05-09T20:40:39.345Z,1.08
2023-05-09T20:43:06.100Z,1.52
2023-05-09T20:45:33.147Z,1.00
2023-05-09T20:48:01.727Z,1.27
2023-05-09T20:50:28.616Z,1.38
2023-05-09T20:52:55.384Z,1.23
2023-05-09T20:55:22.293Z,1.10
2023-05-09T20:57:49.174Z,1.73
2023-05-09T21:00:16.198Z,1.27
2023-05-09T21:02:43.209Z,1.15
2023-05-09T21:05:10.415Z,1.25
2023-05-09T21:07:37.142Z,1.40
2023-05-09T21:10:04.076Z,1.23
2023-05-09T21:12:32.789Z,1.25
2023-05-09T21:14:59.524Z,1.20
2023-05-09T21:17:26.385Z,1.20
2023-05-09T21:19:53.301Z,1.83
2023-05-09T21:22:20.077Z,1.90
2023-05-09T21:24:46.798Z,2.00
2023-05-09T21:27:14.149Z,2.20
2023-05-09T21:29:40.915Z,2.40
2023-05-09T21:32:07.683Z,2.35
2023-05-09T21:34:34.639Z,2.20
2023-05-09T21:37:01.405Z,2.17
2023-05-09T21:39:28.148Z,1.98
2023-05-09T21:41:54.911Z,2.33
2023-05-09T21:44:21.702Z,2.00
2023-05-09T21:46:48.551Z,1.92
2023-05-09T21:49:16.973Z,2.15
2023-05-09T21:51:43.854Z,2.15
2023-05-09T21:54:11.142Z,2.58
2023-05-09T21:56:38.117Z,2.60
2023-05-09T21:59:04.947Z,2.88
2023-05-09T22:01:31.759Z,2.20
2023-05-09T22:03:58.853Z,3.10
2023-05-09T22:06:25.854Z,2.80
2023-05-09T22:08:52.640Z,2.78
2023-05-09T22:11:20.817Z,2.97
2023-05-09T22:13:47.557Z,3.00
2023-05-09T22:16:14.459Z,3.08
2023-05-09T22:18:41.193Z,3.03
2023-05-09T22:21:07.986Z,3.65
2023-05-09T22:23:34.779Z,3.08
2023-05-09T22:26:01.543Z,3.10
2023-05-09T22:28:28.595Z,3.00
2023-05-09T22:30:55.343Z,3.40
2023-05-09T22:33:22.096Z,3.08
2023-05-09T22:35:49.074Z,3.63
2023-05-09T22:38:15.946Z,3.67
2023-05-09T22:40:43.417Z,3.72
2023-05-09T22:43:10.897Z,3.58
2023-05-09T22:45:37.814Z,3.78
2023-05-09T22:48:05.140Z,4.18
2023-05-09T22:50:32.061Z,3.65
2023-05-09T22:52:58.780Z,3.50
2023-05-09T22:55:25.589Z,3.58
2023-05-09T22:57:52.516Z,3.53
2023-05-09T23:00:19.355Z,3.60
2023-05-09T23:02:46.222Z,4.20
2023-05-09T23:05:13.555Z,3.88
2023-05-09T23:07:40.320Z,3.35
2023-05-09T23:10:07.583Z,3.65
2023-05-09T23:12:34.301Z,3.65
2023-05-09T23:15:01.037Z,4.00
2023-05-09T23:17:27.788Z,3.80
2023-05-09T23:19:54.593Z,3.72
2023-05-09T23:22:21.665Z,3.58
2023-05-09T23:24:48.379Z,3.35
2023-05-09T23:27:15.135Z,3.85
2023-05-09T23:29:41.909Z,3.85
2023-05-09T23:32:08.679Z,4.47
2023-05-09T23:34:36.724Z,3.92
2023-05-09T23:37:04.563Z,3.80
2023-05-09T23:39:31.768Z,3.78
2023-05-09T23:41:58.598Z,4.30
2023-05-09T23:44:25.782Z,3.67
2023-05-09T23:46:52.826Z,3.80
2023-05-09T23:49:19.614Z,3.90
2023-05-09T23:51:46.575Z,3.72
2023-05-09T23:54:13.434Z,3.90
2023-05-09T23:56:40.786Z,4.07
2023-05-09T23:59:07.520Z,4.25
